Time;durP1;ratioP1;P1;durP2;ratioP2;P2;SDS_P1;SDS_P2;PMS_P1;PMS_P2;Temp;Humidity;BMP_temperature;BMP_pressure;BME280_temperature;BME280_humidity;BME280_pressure;Samples;Min_cycle;Max_cycle;Signal;HPM_P1;HPM_P2
2021/06/20 00:01:28;;;;;;;13.23;6.95;;;;;;;27.57;51.56;99503.09;5019219;28;20053;-60
2021/06/20 00:03:55;;;;;;;18.60;7.47;;;;;;;27.59;51.46;99511.91;5006722;28;20049;-60
2021/06/20 00:06:32;;;;;;;11.77;6.80;;;;;;;27.64;50.70;99522.19;5017420;28;20055;-59
2021/06/20 00:09:02;;;;;;;12.90;7.25;;;;;;;27.65;50.74;99521.13;5019496;28;20050;-61
2021/06/20 00:11:28;;;;;;;11.00;6.82;;;;;;;27.67;50.72;99520.94;5018314;28;20054;-60
2021/06/20 00:13:56;;;;;;;13.05;7.18;;;;;;;27.67;50.62;99512.78;5019926;28;20049;-59
2021/06/20 00:16:24;;;;;;;11.68;7.18;;;;;;;27.67;50.60;99519.06;5031997;28;20063;-60
2021/06/20 00:18:51;;;;;;;10.85;6.53;;;;;;;27.69;50.45;99505.25;5029822;28;20087;-60
2021/06/20 00:21:18;;;;;;;9.82;6.30;;;;;;;27.68;50.78;99506.31;5019740;28;20042;-60
2021/06/20 00:23:46;;;;;;;19.73;7.50;;;;;;;27.68;50.60;99489.97;5023272;28;20385;-60
2021/06/20 00:26:14;;;;;;;13.05;6.72;;;;;;;27.68;50.45;99482.66;5028399;28;20053;-59
2021/06/20 00:28:40;;;;;;;11.10;6.70;;;;;;;27.68;50.28;99482.66;5035460;28;20101;-60
2021/06/20 00:31:07;;;;;;;13.15;6.85;;;;;;;27.66;50.78;99487.47;5032686;28;20073;-60
2021/06/20 00:33:34;;;;;;;17.48;7.07;;;;;;;27.67;50.20;99480.97;5019957;28;20122;-60
2021/06/20 00:36:00;;;;;;;14.63;6.70;;;;;;;27.67;50.52;99485.59;5022073;28;20413;-60
2021/06/20 00:38:27;;;;;;;9.20;6.43;;;;;;;27.65;50.42;99485.78;5024070;28;20069;-61
2021/06/20 00:40:54;;;;;;;11.50;7.07;;;;;;;27.66;50.27;99489.34;5023067;28;20053;-61
2021/06/20 00:43:20;;;;;;;13.13;7.20;;;;;;;27.66;50.18;99494.78;5028169;28;20721;-60
2021/06/20 00:45:46;;;;;;;11.23;7.00;;;;;;;27.65;50.35;99502.09;5023400;28;20072;-60
2021/06/20 00:48:13;;;;;;;10.98;6.93;;;;;;;27.64;50.07;99496.84;5014153;28;20076;-60
2021/06/20 00:50:41;;;;;;;12.00;6.90;;;;;;;27.64;50.26;99502.31;5025162;28;20072;-61
2021/06/20 00:53:09;;;;;;;9.30;7.30;;;;;;;27.63;50.38;99511.50;5024131;28;20941;-60
2021/06/20 00:55:39;;;;;;;17.77;7.00;;;;;;;27.63;49.94;99508.78;5032070;28;20063;-60
2021/06/20 00:58:07;;;;;;;14.90;7.80;;;;;;;27.59;50.13;99495.59;5004951;28;20163;-59
2021/06/20 01:00:36;;;;;;;11.30;6.72;;;;;;;27.57;50.49;99485.94;5020999;28;20054;-61
2021/06/20 01:03:04;;;;;;;13.57;7.38;;;;;;;27.55;50.28;99497.00;5020120;28;20049;-60
2021/06/20 01:05:31;;;;;;;11.13;6.90;;;;;;;27.56;50.66;99484.22;5018226;28;20053;-60
2021/06/20 01:07:58;;;;;;;10.05;6.82;;;;;;;27.55;50.67;99504.31;5024165;28;20050;-60
2021/06/20 01:10:28;;;;;;;9.95;7.20;;;;;;;27.54;51.02;99511.66;5022679;28;20068;-60
2021/06/20 01:12:55;;;;;;;13.27;6.80;;;;;;;27.52;51.27;99524.63;5023213;28;20056;-60
2021/06/20 01:15:22;;;;;;;10.65;6.97;;;;;;;27.52;51.04;99519.19;5013631;28;20809;-59
2021/06/20 01:17:50;;;;;;;11.73;7.43;;;;;;;27.55;50.75;99536.94;5021034;28;20096;-61
2021/06/20 01:20:19;;;;;;;13.70;7.88;;;;;;;27.56;50.92;99547.66;5018516;28;20052;-61
2021/06/20 01:22:51;;;;;;;11.18;7.00;;;;;;;27.57;50.67;99557.50;5017647;28;20045;-59
2021/06/20 01:25:21;;;;;;;14.50;7.32;;;;;;;27.56;51.29;99561.25;5020315;28;20052;-60
2021/06/20 01:27:56;;;;;;;14.15;7.38;;;;;;;27.56;51.52;99571.25;5019418;28;20060;-61
2021/06/20 01:30:28;;;;;;;10.25;7.05;;;;;;;27.51;51.54;99561.00;5016758;28;20057;-59
2021/06/20 01:32:58;;;;;;;13.57;7.32;;;;;;;27.49;51.85;99567.69;5024688;28;20082;-60
2021/06/20 01:35:25;;;;;;;11.77;7.93;;;;;;;27.46;51.72;99570.78;5019912;28;20053;-60
2021/06/20 01:37:53;;;;;;;13.52;7.68;;;;;;;27.46;51.44;99570.78;5021013;28;20046;-60
2021/06/20 01:40:22;;;;;;;14.30;7.13;;;;;;;27.43;51.91;99582.06;5018090;28;20049;-60
2021/06/20 01:42:50;;;;;;;13.20;7.18;;;;;;;27.41;51.78;99579.53;5022383;28;20522;-61
2021/06/20 01:45:27;;;;;;;9.48;7.32;;;;;;;27.40;52.44;99580.59;5020357;28;20045;-61
2021/06/20 01:47:57;;;;;;;12.40;8.23;;;;;;;27.41;52.22;99568.66;5017745;28;20148;-60
2021/06/20 01:50:25;;;;;;;12.63;7.68;;;;;;;27.36;52.63;99582.03;5015238;28;20045;-60
2021/06/20 01:53:08;;;;;;;12.55;7.97;;;;;;;27.31;53.36;99587.22;5020897;28;20057;-61
2021/06/20 01:55:37;;;;;;;13.13;7.53;;;;;;;27.28;53.15;99589.50;5014931;28;20049;-60
2021/06/20 01:58:08;;;;;;;10.85;7.60;;;;;;;27.25;53.32;99607.03;5021466;28;20059;-59
2021/06/20 02:00:37;;;;;;;14.30;7.80;;;;;;;27.22;53.74;99618.34;5011040;28;20473;-60
2021/06/20 02:03:12;;;;;;;16.52;7.75;;;;;;;27.20;54.47;99623.13;5018992;28;20053;-60
2021/06/20 02:05:41;;;;;;;14.38;8.32;;;;;;;27.17;54.92;99616.22;5018099;28;20041;-61
2021/06/20 02:08:07;;;;;;;14.40;8.55;;;;;;;27.16;55.05;99627.28;5015783;28;20052;-60
2021/06/20 02:10:34;;;;;;;18.80;8.23;;;;;;;27.16;55.59;99624.56;5026908;28;20045;-59
2021/06/20 02:13:02;;;;;;;15.00;8.48;;;;;;;27.13;55.65;99628.50;5015282;28;20060;-61
2021/06/20 02:15:30;;;;;;;16.15;7.93;;;;;;;27.09;55.95;99618.22;5023047;28;20046;-59
2021/06/20 02:17:57;;;;;;;13.00;7.90;;;;;;;27.05;56.23;99628.66;5005779;28;20069;-59
2021/06/20 02:20:23;;;;;;;14.25;8.32;;;;;;;27.01;56.19;99626.53;5016651;28;20079;-60
2021/06/20 02:22:51;;;;;;;13.85;7.35;;;;;;;27.01;56.09;99624.66;5022881;28;20053;-60
2021/06/20 02:25:20;;;;;;;15.57;7.45;;;;;;;27.03;55.72;99629.88;5013866;28;20397;-60
2021/06/20 02:27:50;;;;;;;21.23;7.23;;;;;;;27.03;54.42;99621.75;5022255;28;20150;-59
2021/06/20 02:30:17;;;;;;;16.03;5.90;;;;;;;26.99;53.93;99629.44;5018339;28;20060;-60
2021/06/20 02:32:44;;;;;;;15.32;5.68;;;;;;;26.99;53.30;99624.00;5017617;28;20052;-61
2021/06/20 02:35:13;;;;;;;14.27;6.13;;;;;;;26.97;53.36;99633.38;5020555;28;20413;-59
2021/06/20 02:37:42;;;;;;;14.05;5.78;;;;;;;26.97;52.72;99655.13;4999343;28;20065;-60
2021/06/20 02:40:10;;;;;;;12.25;5.20;;;;;;;26.92;53.12;99642.06;5018393;28;20049;-59
2021/06/20 02:42:37;;;;;;;16.95;5.50;;;;;;;26.92;52.81;99643.97;5018392;28;20068;-60
2021/06/20 02:45:06;;;;;;;15.40;5.20;;;;;;;26.90;53.12;99650.44;5016269;28;20516;-60
2021/06/20 02:47:33;;;;;;;20.17;5.87;;;;;;;26.83;53.30;99646.81;5020457;28;20681;-59
2021/06/20 02:50:00;;;;;;;15.43;5.28;;;;;;;26.76;53.45;99654.03;5014009;28;20056;-60
2021/06/20 02:52:26;;;;;;;16.33;5.50;;;;;;;26.68;53.98;99662.34;5019491;28;20068;-60
2021/06/20 02:54:53;;;;;;;10.27;5.10;;;;;;;26.62;54.39;99652.25;5019513;28;20045;-60
2021/06/20 02:57:24;;;;;;;14.98;5.95;;;;;;;26.55;54.63;99654.91;5018325;28;20086;-59
2021/06/20 02:59:51;;;;;;;14.82;5.28;;;;;;;26.51;54.96;99641.91;5015020;28;20050;-59
2021/06/20 03:02:18;;;;;;;16.92;5.95;;;;;;;26.47;55.08;99648.72;5013551;28;20049;-60
2021/06/20 03:04:45;;;;;;;13.60;5.45;;;;;;;26.42;55.54;99648.50;5019560;28;20044;-59
2021/06/20 03:07:13;;;;;;;12.00;5.25;;;;;;;26.40;55.64;99658.69;5010186;28;20053;-60
2021/06/20 03:09:40;;;;;;;20.65;5.68;;;;;;;26.37;55.60;99656.38;5012392;28;20045;-60
2021/06/20 03:12:07;;;;;;;16.52;5.28;;;;;;;26.32;55.92;99662.34;5018550;28;20417;-60
2021/06/20 03:14:35;;;;;;;12.45;5.25;;;;;;;26.27;56.03;99656.66;5014094;28;20060;-60
2021/06/20 03:17:03;;;;;;;12.60;5.88;;;;;;;26.20;56.82;99672.00;5014235;28;20044;-59
2021/06/20 03:19:31;;;;;;;14.68;5.40;;;;;;;26.15;56.96;99696.97;5015133;28;20132;-60
2021/06/20 03:22:00;;;;;;;18.15;5.35;;;;;;;26.10;57.05;99715.72;5015550;28;20053;-60
2021/06/20 03:24:29;;;;;;;14.15;5.50;;;;;;;26.09;57.16;99714.03;5008286;28;20045;-60
2021/06/20 03:26:57;;;;;;;15.25;5.70;;;;;;;26.04;57.18;99724.59;5013659;28;20060;-60
2021/06/20 03:29:24;;;;;;;11.48;5.00;;;;;;;25.99;57.51;99739.75;5019514;28;20053;-59
2021/06/20 03:31:51;;;;;;;14.25;5.00;;;;;;;25.94;57.94;99734.91;5011406;28;20045;-61
2021/06/20 03:34:18;;;;;;;18.50;5.90;;;;;;;25.90;58.07;99739.00;5012778;28;20059;-60
2021/06/20 03:36:44;;;;;;;13.25;5.93;;;;;;;25.86;57.93;99740.41;5017001;28;20068;-60
2021/06/20 03:39:12;;;;;;;12.30;5.22;;;;;;;25.89;58.16;99744.63;5017504;28;20056;-61
2021/06/20 03:41:39;;;;;;;15.57;5.15;;;;;;;25.86;57.86;99756.69;5018705;28;20049;-61
2021/06/20 03:44:07;;;;;;;17.60;5.20;;;;;;;25.90;56.43;99762.56;5014071;28;20052;-59
2021/06/20 03:46:37;;;;;;;12.10;5.18;;;;;;;25.85;56.87;99755.00;5014912;28;20045;-61
2021/06/20 03:49:04;;;;;;;14.73;5.15;;;;;;;25.78;57.01;99760.34;5023326;28;20053;-60
2021/06/20 03:51:32;;;;;;;10.70;4.82;;;;;;;25.77;57.10;99768.66;5012349;28;20046;-60
2021/06/20 03:53:58;;;;;;;10.18;4.60;;;;;;;25.75;57.50;99766.13;5023261;28;20052;-60
2021/06/20 03:56:25;;;;;;;10.77;4.65;;;;;;;25.75;57.55;99776.13;5012913;28;20057;-60
2021/06/20 03:58:52;;;;;;;15.93;4.95;;;;;;;25.74;57.66;99766.28;5014517;28;20060;-59
2021/06/20 04:01:18;;;;;;;10.45;4.75;;;;;;;25.71;56.62;99770.22;5020965;28;20049;-60
2021/06/20 04:03:45;;;;;;;10.77;4.03;;;;;;;25.69;56.34;99763.28;5016913;28;20053;-60
2021/06/20 04:06:12;;;;;;;15.73;4.32;;;;;;;25.65;56.56;99767.41;5014585;28;20409;-60
2021/06/20 04:08:38;;;;;;;14.10;4.32;;;;;;;25.64;56.25;99771.16;5018289;28;20081;-59
2021/06/20 04:11:06;;;;;;;9.93;3.92;;;;;;;25.64;55.91;99771.16;5035069;28;20046;-60
2021/06/20 04:13:33;;;;;;;18.70;4.10;;;;;;;25.65;55.92;99770.13;5037377;28;22051;-59
2021/06/20 04:15:59;;;;;;;11.98;3.35;;;;;;;25.66;56.32;99777.22;5017056;28;20052;-60
2021/06/20 04:18:26;;;;;;;8.30;4.05;;;;;;;25.65;56.49;99786.41;5021672;28;20120;-60
2021/06/20 04:20:53;;;;;;;10.57;4.18;;;;;;;25.65;55.88;99783.69;5015637;28;20056;-61
2021/06/20 04:23:20;;;;;;;10.77;3.95;;;;;;;25.64;55.95;99788.28;5018930;28;20058;-59
2021/06/20 04:25:46;;;;;;;13.98;4.13;;;;;;;25.64;56.22;99790.13;5021410;28;20041;-60
2021/06/20 04:28:15;;;;;;;8.43;3.53;;;;;;;25.60;55.88;99797.75;5013325;28;20053;-61
2021/06/20 04:30:42;;;;;;;9.85;4.03;;;;;;;25.62;56.11;99798.44;5014801;28;20437;-60
2021/06/20 04:33:09;;;;;;;7.68;3.22;;;;;;;25.61;55.44;99785.88;5012114;28;20088;-60
2021/06/20 04:35:35;;;;;;;9.85;3.50;;;;;;;25.55;55.45;99785.75;5011987;28;20041;-60
2021/06/20 04:38:02;;;;;;;9.77;3.50;;;;;;;25.49;56.26;99777.34;5002744;28;20050;-61
2021/06/20 04:40:28;;;;;;;8.02;3.80;;;;;;;25.50;55.88;99773.59;4972780;28;20109;-61
2021/06/20 04:42:58;;;;;;;11.65;3.80;;;;;;;25.50;56.00;99780.88;4993729;28;20060;-61
2021/06/20 04:45:24;;;;;;;8.75;3.25;;;;;;;25.45;56.51;99786.88;4989116;28;20054;-60
2021/06/20 04:47:51;;;;;;;9.55;3.78;;;;;;;25.50;56.48;99789.00;4993300;28;20054;-59
2021/06/20 04:50:18;;;;;;;8.88;3.28;;;;;;;25.52;56.59;99793.22;4996512;28;20052;-59
2021/06/20 04:52:44;;;;;;;5.10;3.38;;;;;;;25.57;56.03;99789.13;4998351;28;20081;-60
2021/06/20 04:55:12;;;;;;;9.77;3.53;;;;;;;25.58;56.44;99797.09;4997694;28;20046;-60
2021/06/20 04:57:39;;;;;;;7.75;2.97;;;;;;;25.57;56.15;99806.25;4993200;28;20434;-59
2021/06/20 05:00:08;;;;;;;7.05;3.40;;;;;;;25.53;55.84;99811.19;4996266;28;20050;-59
2021/06/20 05:02:35;;;;;;;10.77;3.53;;;;;;;25.48;56.65;99821.75;4999763;28;20049;-60
2021/06/20 05:05:03;;;;;;;8.93;3.80;;;;;;;25.44;56.09;99812.28;4992264;28;20534;-60
2021/06/20 05:07:30;;;;;;;8.40;3.60;;;;;;;25.39;56.78;99820.13;4998067;28;20141;-60
2021/06/20 05:09:57;;;;;;;6.97;3.45;;;;;;;25.32;57.33;99812.91;4995576;28;20050;-60
2021/06/20 05:12:23;;;;;;;8.75;3.50;;;;;;;25.34;57.68;99817.09;5005148;28;20057;-60
2021/06/20 05:14:50;;;;;;;9.23;3.63;;;;;;;25.32;57.21;99823.75;5006997;28;20512;-60
2021/06/20 05:17:18;;;;;;;8.10;3.50;;;;;;;25.27;57.60;99828.84;4995677;28;20057;-60
2021/06/20 05:19:45;;;;;;;14.20;3.53;;;;;;;25.20;57.94;99826.00;4997668;28;20058;-60
2021/06/20 05:22:16;;;;;;;11.23;3.65;;;;;;;25.19;57.94;99824.31;4998972;28;20593;-61
2021/06/20 05:24:42;;;;;;;9.57;3.38;;;;;;;25.21;57.44;99821.44;5000082;28;20054;-60
2021/06/20 05:27:09;;;;;;;9.15;3.40;;;;;;;25.12;57.48;99828.78;4998064;28;21217;-60
2021/06/20 05:29:37;;;;;;;7.50;3.35;;;;;;;25.04;57.30;99820.69;4995397;28;20125;-60
2021/06/20 05:32:05;;;;;;;9.18;3.45;;;;;;;25.01;57.18;99818.38;5000346;28;20058;-59
2021/06/20 05:34:31;;;;;;;5.90;3.15;;;;;;;25.04;57.06;99831.53;4991749;28;20766;-60
2021/06/20 05:36:58;;;;;;;4.95;3.10;;;;;;;25.10;57.21;99833.53;5002179;28;20068;-59
2021/06/20 05:39:24;;;;;;;8.63;3.17;;;;;;;25.20;57.35;99828.72;5022842;28;20069;-60
2021/06/20 05:41:51;;;;;;;7.15;3.05;;;;;;;25.33;57.44;99837.13;5015070;28;20072;-59
2021/06/20 05:44:17;;;;;;;10.75;3.50;;;;;;;25.32;56.82;99840.84;5015454;28;20064;-60
2021/06/20 05:46:44;;;;;;;8.65;3.25;;;;;;;25.36;57.46;99838.59;5009989;28;20049;-60
2021/06/20 05:49:11;;;;;;;8.20;3.63;;;;;;;25.27;57.22;99835.13;5016957;28;20049;-60
2021/06/20 05:51:37;;;;;;;9.48;3.55;;;;;;;25.23;57.23;99839.19;5018626;28;20053;-60
2021/06/20 05:54:04;;;;;;;8.27;3.40;;;;;;;25.21;57.33;99838.53;5013486;28;20057;-60
2021/06/20 05:56:30;;;;;;;9.35;3.47;;;;;;;25.21;57.19;99837.69;5021137;28;20064;-60
2021/06/20 05:58:57;;;;;;;5.72;3.33;;;;;;;25.28;57.49;99850.34;5013312;28;20214;-61
2021/06/20 06:01:23;;;;;;;8.65;3.17;;;;;;;25.35;56.84;99845.03;5017139;28;20057;-59
2021/06/20 06:03:50;;;;;;;9.10;3.60;;;;;;;25.36;56.61;99841.31;5014868;28;20045;-60
2021/06/20 06:06:16;;;;;;;9.88;3.28;;;;;;;25.50;56.25;99846.78;5011987;28;20033;-59
2021/06/20 06:08:43;;;;;;;7.18;3.00;;;;;;;25.60;56.17;99865.53;5020862;28;20699;-59
2021/06/20 06:11:09;;;;;;;10.18;3.15;;;;;;;25.78;55.51;99866.09;5012438;28;20057;-59
2021/06/20 06:13:36;;;;;;;7.05;3.28;;;;;;;25.99;55.23;99876.25;5024286;28;20053;-58
2021/06/20 06:16:03;;;;;;;4.53;3.22;;;;;;;26.23;54.30;99885.19;5015323;28;20049;-60
2021/06/20 06:18:29;;;;;;;5.97;3.20;;;;;;;26.34;54.11;99873.91;5011837;28;20524;-59
2021/06/20 06:20:55;;;;;;;6.05;3.22;;;;;;;26.44;53.78;99874.47;5015933;28;20069;-61
2021/06/20 06:23:22;;;;;;;7.05;2.88;;;;;;;26.53;53.40;99863.31;5017451;28;20047;-59
2021/06/20 06:25:49;;;;;;;6.05;3.00;;;;;;;26.59;52.49;99856.31;5022773;28;20041;-60
2021/06/20 06:28:15;;;;;;;7.63;3.00;;;;;;;26.69;52.14;99856.00;5013165;28;20124;-60
2021/06/20 06:30:42;;;;;;;5.45;2.60;;;;;;;26.89;52.40;99857.13;5010947;28;20056;-61
2021/06/20 06:33:08;;;;;;;6.60;2.85;;;;;;;26.92;50.75;99865.72;5011567;28;20448;-60
2021/06/20 06:35:35;;;;;;;8.07;2.90;;;;;;;26.90;52.20;99864.25;5012619;28;20046;-61
2021/06/20 06:38:02;;;;;;;6.72;2.90;;;;;;;26.91;51.25;99855.06;5020399;28;20061;-61
2021/06/20 06:40:29;;;;;;;5.95;2.85;;;;;;;27.07;51.49;99854.03;5014865;28;20054;-60
2021/06/20 06:42:56;;;;;;;5.30;3.00;;;;;;;27.18;50.85;99864.38;5015227;28;20722;-59
2021/06/20 06:45:23;;;;;;;7.00;2.80;;;;;;;27.11;51.25;99869.72;5016894;28;20152;-61
2021/06/20 06:47:49;;;;;;;8.40;3.22;;;;;;;27.04;51.20;99870.72;5011879;28;21517;-62
2021/06/20 06:50:17;;;;;;;7.40;2.63;;;;;;;27.07;51.74;99881.19;5021575;28;20120;-62
2021/06/20 06:52:45;;;;;;;4.75;2.60;;;;;;;27.12;50.74;99874.13;5011954;28;20049;-62
2021/06/20 06:55:12;;;;;;;5.57;2.88;;;;;;;27.17;51.39;99876.28;5012097;28;20045;-60
2021/06/20 06:57:38;;;;;;;7.28;3.10;;;;;;;27.36;50.46;99870.25;5015375;28;20823;-60
2021/06/20 07:00:10;;;;;;;9.80;3.27;;;;;;;27.45;50.50;99870.94;5009262;28;20049;-59
2021/06/20 07:02:36;;;;;;;5.40;2.80;;;;;;;27.57;50.52;99863.97;5015579;28;20053;-59
2021/06/20 07:05:04;;;;;;;5.88;2.95;;;;;;;27.62;49.40;99868.84;5012074;28;20046;-62
2021/06/20 07:07:30;;;;;;;8.40;3.00;;;;;;;27.67;50.24;99866.41;5012340;28;20056;-59
2021/06/20 07:10:00;;;;;;;9.65;3.58;;;;;;;27.79;50.96;99871.09;5021711;28;20068;-62
2021/06/20 07:12:30;;;;;;;4.90;2.80;;;;;;;27.86;50.44;99872.00;5008441;28;20037;-60
2021/06/20 07:14:57;;;;;;;9.98;3.35;;;;;;;27.78;49.83;99869.41;5023181;28;20649;-59
2021/06/20 07:17:24;;;;;;;4.82;3.38;;;;;;;27.70;51.16;99871.44;4993015;28;20053;-59
2021/06/20 07:19:50;;;;;;;6.10;3.15;;;;;;;27.62;50.98;99868.84;5010444;28;20061;-61
2021/06/20 07:22:17;;;;;;;4.95;3.35;;;;;;;27.61;51.10;99864.44;5016692;28;20626;-61
2021/06/20 07:24:44;;;;;;;6.20;3.30;;;;;;;27.49;51.60;99864.94;5011189;28;20064;-61
2021/06/20 07:27:12;;;;;;;9.98;3.75;;;;;;;27.44;52.47;99871.97;5017646;28;20634;-61
2021/06/20 07:29:39;;;;;;;7.18;3.40;;;;;;;27.40;51.43;99882.41;5005423;28;20058;-61
2021/06/20 07:32:06;;;;;;;7.13;3.53;;;;;;;27.31;51.15;99889.00;5010318;28;20049;-59
2021/06/20 07:34:33;;;;;;;6.05;3.25;;;;;;;27.38;51.26;99886.38;5011622;28;20136;-59
2021/06/20 07:36:59;;;;;;;6.72;3.30;;;;;;;27.51;51.03;99881.06;5010824;28;20505;-62
2021/06/20 07:39:26;;;;;;;6.80;3.20;;;;;;;27.79;49.69;99884.72;5019910;28;20053;-59
2021/06/20 07:41:52;;;;;;;7.85;3.33;;;;;;;28.03;48.69;99886.16;5017082;28;20053;-62
2021/06/20 07:44:19;;;;;;;7.20;3.00;;;;;;;27.97;49.02;99883.41;5016501;28;20061;-59
2021/06/20 07:46:45;;;;;;;7.97;2.80;;;;;;;28.09;47.59;99893.53;5023031;28;20038;-59
2021/06/20 07:49:12;;;;;;;8.32;2.70;;;;;;;28.12;48.25;99892.31;5019637;28;20061;-60
2021/06/20 07:51:38;;;;;;;7.22;2.97;;;;;;;28.08;47.86;99882.84;5020829;28;20056;-60
2021/06/20 07:54:05;;;;;;;7.45;3.42;;;;;;;27.95;48.77;99886.31;5014244;28;20049;-60
2021/06/20 07:56:32;;;;;;;7.65;3.35;;;;;;;27.77;49.67;99891.38;5016419;28;20061;-59
2021/06/20 07:58:58;;;;;;;6.60;3.15;;;;;;;27.65;49.86;99887.50;5015009;28;20053;-60
2021/06/20 08:01:25;;;;;;;10.35;3.72;;;;;;;27.49;50.25;99881.25;5011893;28;20060;-59
2021/06/20 08:03:52;;;;;;;9.52;3.55;;;;;;;27.70;52.04;99885.91;5016908;28;20068;-59
2021/06/20 08:06:22;;;;;;;8.52;3.40;;;;;;;28.01;50.38;99874.66;4994403;28;20049;-60
2021/06/20 08:08:54;;;;;;;6.45;3.15;;;;;;;28.23;49.76;99881.75;5001492;28;20072;-59
2021/06/20 08:11:26;;;;;;;7.03;3.10;;;;;;;28.48;48.75;99867.69;5007679;28;20496;-59
2021/06/20 08:13:53;;;;;;;5.72;2.97;;;;;;;28.49;47.89;99859.28;5015449;28;20103;-60
2021/06/20 08:16:20;;;;;;;5.00;3.20;;;;;;;28.62;46.96;99862.09;5015137;28;20044;-60
2021/06/20 08:18:47;;;;;;;8.07;3.63;;;;;;;28.67;47.31;99871.53;5019480;28;20917;-59
2021/06/20 08:21:13;;;;;;;7.25;3.33;;;;;;;28.86;47.40;99877.13;5010073;28;20470;-60
2021/06/20 08:23:40;;;;;;;5.38;2.85;;;;;;;29.11;47.11;99868.44;5009567;28;20058;-61
2021/06/20 08:26:07;;;;;;;7.15;3.40;;;;;;;29.41;46.78;99867.06;5008493;28;20045;-59
2021/06/20 08:28:34;;;;;;;6.35;3.28;;;;;;;29.38;45.68;99875.63;4992675;28;20065;-59
2021/06/20 08:31:01;;;;;;;6.80;2.85;;;;;;;29.30;46.40;99873.06;5012008;28;20063;-59
2021/06/20 08:33:28;;;;;;;5.85;3.33;;;;;;;29.43;45.41;99873.16;5018059;28;20053;-59
2021/06/20 08:35:55;;;;;;;6.45;3.30;;;;;;;29.18;45.52;99886.47;5008819;28;20485;-61
2021/06/20 08:38:22;;;;;;;7.13;3.70;;;;;;;28.56;46.88;99894.75;5017091;28;20065;-58
2021/06/20 08:40:48;;;;;;;6.47;3.33;;;;;;;28.50;47.31;99903.72;5009007;28;20045;-62
2021/06/20 08:43:15;;;;;;;5.88;3.08;;;;;;;28.87;46.95;99906.06;5015081;28;20098;-59
2021/06/20 08:45:42;;;;;;;4.40;3.28;;;;;;;28.97;45.62;99898.34;4997122;28;20131;-60
2021/06/20 08:48:12;;;;;;;7.40;3.38;;;;;;;28.77;46.06;99896.56;5009513;28;20053;-60
2021/06/20 08:50:41;;;;;;;5.95;3.38;;;;;;;28.94;45.89;99881.56;5012046;28;20408;-60
2021/06/20 08:53:07;;;;;;;5.43;3.13;;;;;;;28.87;46.02;99867.06;5017271;28;20049;-60
2021/06/20 08:55:34;;;;;;;5.40;2.97;;;;;;;28.85;45.20;99883.63;5009170;28;20041;-58
2021/06/20 08:58:15;;;;;;;5.30;2.83;;;;;;;28.81;45.54;99895.97;5014416;28;20060;-59
2021/06/20 09:00:42;;;;;;;5.00;2.58;;;;;;;28.91;44.37;99882.81;5013095;28;20065;-60
2021/06/20 09:03:12;;;;;;;3.00;2.60;;;;;;;28.84;43.88;99871.03;5011099;28;20512;-60
2021/06/20 09:05:38;;;;;;;3.28;2.95;;;;;;;28.67;44.73;99877.81;5014998;28;20072;-61
2021/06/20 09:08:15;;;;;;;3.58;2.60;;;;;;;28.69;45.02;99872.19;5018306;28;20049;-61
2021/06/20 09:10:42;;;;;;;6.07;2.90;;;;;;;28.62;45.44;99873.00;5011666;28;20057;-61
2021/06/20 09:13:09;;;;;;;4.35;2.72;;;;;;;28.51;45.79;99873.53;5013755;28;20057;-61
2021/06/20 09:15:36;;;;;;;7.97;3.20;;;;;;;28.33;45.16;99873.25;5012017;28;20057;-61
2021/06/20 09:18:05;;;;;;;5.78;2.90;;;;;;;28.16;46.01;99874.56;5019587;28;20592;-61
2021/06/20 09:20:37;;;;;;;4.97;3.20;;;;;;;28.30;45.95;99873.63;5017582;28;20057;-59
2021/06/20 09:23:08;;;;;;;7.07;3.28;;;;;;;28.42;43.50;99861.16;5015007;28;20464;-59
2021/06/20 09:25:36;;;;;;;5.75;2.97;;;;;;;28.31;44.17;99875.31;5017578;28;20053;-62
2021/06/20 09:28:04;;;;;;;3.63;2.72;;;;;;;28.35;44.00;99879.31;5016916;28;20549;-60
2021/06/20 09:30:34;;;;;;;5.30;3.00;;;;;;;28.26;44.43;99884.09;5020873;28;20411;-61
2021/06/20 09:33:07;;;;;;;5.05;2.83;;;;;;;28.10;44.65;99883.50;5016107;28;20077;-60
2021/06/20 09:35:43;;;;;;;8.30;3.25;;;;;;;28.06;45.32;99884.94;5014605;28;20053;-61
2021/06/20 09:38:20;;;;;;;9.52;4.03;;;;;;;28.27;44.08;99869.44;5011451;28;20060;-60
2021/06/20 09:40:50;;;;;;;7.07;3.40;;;;;;;28.43;43.30;99865.56;5013609;28;20053;-60
2021/06/20 09:43:19;;;;;;;4.82;2.60;;;;;;;28.57;43.85;99863.75;5013844;28;20767;-60
2021/06/20 09:45:48;;;;;;;6.10;2.97;;;;;;;28.70;43.38;99871.97;5013090;28;20049;-60
2021/06/20 09:48:23;;;;;;;5.22;3.22;;;;;;;28.83;44.06;99877.53;5013265;28;20450;-59
2021/06/20 09:50:51;;;;;;;4.13;2.92;;;;;;;29.04;43.74;99886.63;5006288;28;20065;-59
2021/06/20 09:53:31;;;;;;;4.22;2.95;;;;;;;29.27;44.49;99884.44;5014743;28;20045;-60
2021/06/20 09:56:09;;;;;;;;;;;;;;;29.40;42.76;99881.75;5014914;28;20045;-61
2021/06/20 09:58:42;;;;;;;7.13;3.42;;;;;;;29.37;43.75;99860.31;5017215;28;20678;-60
2021/06/20 10:01:13;;;;;;;4.13;3.38;;;;;;;29.27;43.40;99855.28;5014483;28;20083;-61
2021/06/20 10:03:41;;;;;;;5.05;3.42;;;;;;;29.29;43.09;99849.56;5012570;28;20075;-60
2021/06/20 10:06:10;;;;;;;5.32;3.40;;;;;;;29.23;43.12;99853.16;5017454;28;20057;-61
2021/06/20 10:08:36;;;;;;;6.50;3.47;;;;;;;29.19;42.63;99844.53;5010892;28;20060;-60
2021/06/20 10:11:03;;;;;;;5.97;3.60;;;;;;;29.10;43.25;99848.50;5021192;28;20091;-60
2021/06/20 10:13:29;;;;;;;6.85;4.00;;;;;;;29.01;43.79;99852.44;5018524;28;20049;-60
2021/06/20 10:16:10;;;;;;;10.15;4.00;;;;;;;28.87;44.87;99850.72;5012354;28;20073;-60
2021/06/20 10:18:40;;;;;;;5.88;3.65;;;;;;;28.74;44.43;99865.09;5013354;28;20049;-59
2021/06/20 10:21:06;;;;;;;;;;;;;;;28.44;44.99;99856.34;5017362;28;20576;-60
2021/06/20 10:23:33;;;;;;;6.65;3.63;;;;;;;28.52;45.30;99845.28;5013070;28;19925;-60
2021/06/20 10:26:07;;;;;;;4.75;3.50;;;;;;;28.64;44.00;99845.56;5016832;28;20492;-60
2021/06/20 10:28:34;;;;;;;4.88;3.30;;;;;;;28.89;44.25;99835.84;5012583;28;20045;-60
2021/06/20 10:31:09;;;;;;;4.57;3.58;;;;;;;29.07;42.69;99828.97;5015311;28;20045;-61
2021/06/20 10:33:37;;;;;;;6.53;3.40;;;;;;;29.20;43.63;99823.56;5012881;28;20057;-59
2021/06/20 10:36:06;;;;;;;9.18;3.85;;;;;;;29.21;42.71;99822.53;5015444;28;20830;-58
2021/06/20 10:38:43;;;;;;;5.63;3.53;;;;;;;29.16;43.52;99828.56;5012523;28;20056;-59
2021/06/20 10:41:28;;;;;;;6.55;3.33;;;;;;;29.15;43.24;99826.06;5013372;28;20045;-62
2021/06/20 10:44:00;;;;;;;4.50;3.45;;;;;;;29.15;44.36;99834.22;5014878;28;20445;-61
2021/06/20 10:46:28;;;;;;;5.53;3.70;;;;;;;29.14;44.01;99829.81;5013944;28;20054;-60
2021/06/20 10:48:55;;;;;;;7.57;4.38;;;;;;;29.16;44.43;99830.47;5014261;28;20053;-60
2021/06/20 10:51:23;;;;;;;7.15;4.03;;;;;;;29.09;43.43;99830.47;4998816;28;20053;-60
2021/06/20 10:53:51;;;;;;;6.40;3.85;;;;;;;28.98;43.93;99823.69;5013276;28;20060;-60
2021/06/20 10:56:24;;;;;;;5.10;3.90;;;;;;;29.02;44.16;99836.94;5015207;28;20041;-60
2021/06/20 10:58:52;;;;;;;6.45;4.30;;;;;;;28.79;44.22;99831.78;5015862;28;20057;-60
2021/06/20 11:01:21;;;;;;;4.28;3.88;;;;;;;28.58;44.89;99833.56;5016450;28;20053;-60
2021/06/20 11:03:51;;;;;;;4.37;3.97;;;;;;;28.56;45.22;99823.91;5014136;28;20524;-60
2021/06/20 11:06:25;;;;;;;5.97;3.83;;;;;;;28.81;45.61;99816.94;5015042;28;20052;-64
2021/06/20 11:09:05;;;;;;;10.00;4.18;;;;;;;29.07;44.53;99809.91;5013837;28;20149;-60
2021/06/20 11:11:36;;;;;;;5.85;4.20;;;;;;;29.27;44.33;99800.72;5013828;28;20055;-60
2021/06/20 11:14:08;;;;;;;6.63;4.85;;;;;;;29.37;43.17;99800.31;5011539;28;20065;-60
2021/06/20 11:16:39;;;;;;;6.57;4.20;;;;;;;29.39;43.97;99797.41;5010173;28;20053;-60
2021/06/20 11:19:27;;;;;;;5.10;3.70;;;;;;;29.32;43.79;99803.66;5015956;28;20068;-60
2021/06/20 11:22:02;;;;;;;5.95;3.45;;;;;;;29.12;43.05;99799.22;4994900;28;20052;-61
2021/06/20 11:24:35;;;;;;;4.75;3.53;;;;;;;29.13;43.72;99798.16;5013808;28;20064;-62
2021/06/20 11:27:03;;;;;;;6.47;3.75;;;;;;;29.29;43.54;99795.88;5012437;28;20049;-60
2021/06/20 11:29:54;;;;;;;6.88;3.40;;;;;;;29.53;42.01;99780.84;5019814;28;20053;-60
2021/06/20 11:32:23;;;;;;;3.95;3.25;;;;;;;29.51;42.19;99779.38;5018124;28;20500;-60
2021/06/20 11:35:16;;;;;;;6.22;3.28;;;;;;;29.29;41.16;99779.50;5016564;28;20807;-60
2021/06/20 11:37:49;;;;;;;5.07;2.95;;;;;;;29.24;40.65;99781.22;5013033;28;20528;-60